LFBZLESO

Guest
Details From LFBZ - Biarritz-Anglet-Bayonne
To LESO - San_Sebastian
Flight Number -
Tags generated
Created
Modified
Stats Distance 14 nm / 25 km
Max Altitude 200 ft / 61 m
Waypoints 3
Social Downloads 1
Likes 0
Share VATSIM

Download

Looking for another format? Having issues loading an existing format? Contact us
Advertisement - Login to hide

Notes

Basic altitude profile: - Ascent Rate: 2500ft/min - Ascent Speed: 250kts - Cruise Altitude: 35000ft - Cruise Speed: 420kts - Descent Rate: 1500ft/min - Descent Speed: 250kts

Route

LFBZ LUSEM LESO

ID Type Via Altitude Latitude Longitude Leg Dist Tot Dist Heading (true) Name
O LFBZ APT - 0 ft / 0 m 43.46843˚ -1.52332˚ - 0 nm - Biarritz-Anglet-Bayonne
LUSEM FIX - 200 ft / 61 m 43.37472˚ -1.78056˚ 12 nm 12 nm 243° / 243° -
O LESO APT - 0 ft / 0 m 43.35652˚ -1.79061˚ 1 nm 13 nm 202° / 202° San_Sebastian

Altitude Profile

Advertisement - Login to hide

LFBZ

Details ICAO LFBZ (BIQ)
Name Biarritz-Anglet-Bayonne
Region France
Timezone Europe/Paris (UTC+1.0)
Stats Elevation 245 ft / 75 m (AMSL)
Location 43.468427° -1.523322°
Runways 1
Magnetic Variation 0.227° W

METAR

LFBZ 112300Z AUTO 24011KT 200V270 9000 -RA FEW018/// BKN023/// BKN028/// ///TCU 06/04 Q1005 TEMPO 4000 SHRA

Decode

TAF

TAF AMD LFBZ 112024Z 1120/1218 26010KT 9999 BKN020 TEMPO 1120/1202 4000 SHRA SCT012 BKN035TCU PROB40 TEMPO 1120/1123 27030G45KT TSRA BKN014CB BECMG 1203/1205 17005KT SCT008 BKN030 BECMG 1212/1214 27012KT TEMPO 1214/1218 26015G25KT

Decode

Departure Runways

ID Width Length Bearing (true) Bearing (mag) Surface Threshold Offset Overrun Length
09 148 ft / 45 m 7,388 ft / 2,252 m 89.12° 89.35° Asphalt 673 ft / 205 m 0 ft / 0 m
27 148 ft / 45 m 7,388 ft / 2,252 m 269.14° 269.37° Asphalt 0 ft / 0 m 0 ft / 0 m

LESO

Details ICAO LESO (EAS)
Name San_Sebastian
Region Spain
Timezone Europe/Madrid (UTC+1.0)
Stats Elevation 14 ft / 4 m (AMSL)
Location 43.356520° -1.790611°
Runways 1
Magnetic Variation 0.298° W

METAR

LESO 112300Z 23016KT 210V270 8000 RA SCT025 BKN033 BKN050 07/04 Q1006

Decode

TAF

TAF TAF LESO 111700Z 1118/1218 26009KT 9999 SCT025 BKN040 TX08/1213Z TN06/1206Z TEMPO 1118/1124 26015G25KT TEMPO 1118/1124 26018G32KT TEMPO 1118/1218 3000 SHRA SCT030TCU PROB40 TEMPO 1118/1206 3000 TSRAGR BKN014 BKN025CB

Decode

Destination Runways

ID Width Length Bearing (true) Bearing (mag) Surface Threshold Offset Overrun Length
04 148 ft / 45 m 5,762 ft / 1,756 m 38.68° 38.98° Asphalt 0 ft / 0 m 0 ft / 0 m
22 148 ft / 45 m 5,762 ft / 1,756 m 218.69° 218.99° Asphalt 0 ft / 0 m 0 ft / 0 m

Popular Alternatives